sensor_id;sensor_type;location;lat;lon;timestamp;P1;durP1;ratioP1;P2;durP2;ratioP2
18649;SDS011;9454;53.516;10.478;2022-08-19T00:02:21;7.97;;;4.43;;
18649;SDS011;9454;53.516;10.478;2022-08-19T00:05:24;8.27;;;4.63;;
18649;SDS011;9454;53.516;10.478;2022-08-19T00:08:26;9.52;;;5.43;;
18649;SDS011;9454;53.516;10.478;2022-08-19T00:11:29;10.15;;;5.38;;
18649;SDS011;9454;53.516;10.478;2022-08-19T00:14:34;13.38;;;5.88;;
18649;SDS011;9454;53.516;10.478;2022-08-19T00:17:37;9.10;;;5.15;;
18649;SDS011;9454;53.516;10.478;2022-08-19T00:20:42;13.32;;;5.32;;
18649;SDS011;9454;53.516;10.478;2022-08-19T00:23:45;10.40;;;4.88;;
18649;SDS011;9454;53.516;10.478;2022-08-19T00:26:48;14.25;;;5.93;;
18649;SDS011;9454;53.516;10.478;2022-08-19T00:29:53;10.60;;;5.13;;
18649;SDS011;9454;53.516;10.478;2022-08-19T00:32:55;12.98;;;5.90;;
18649;SDS011;9454;53.516;10.478;2022-08-19T00:35:58;10.80;;;6.28;;
18649;SDS011;9454;53.516;10.478;2022-08-19T00:39:01;13.23;;;6.88;;
18649;SDS011;9454;53.516;10.478;2022-08-19T00:42:04;14.88;;;7.82;;
18649;SDS011;9454;53.516;10.478;2022-08-19T00:45:11;14.23;;;6.25;;
18649;SDS011;9454;53.516;10.478;2022-08-19T00:48:14;16.95;;;7.28;;
18649;SDS011;9454;53.516;10.478;2022-08-19T00:51:17;12.07;;;7.07;;
18649;SDS011;9454;53.516;10.478;2022-08-19T00:54:21;12.90;;;7.05;;
18649;SDS011;9454;53.516;10.478;2022-08-19T00:57:32;13.40;;;7.07;;
18649;SDS011;9454;53.516;10.478;2022-08-19T01:00:39;17.15;;;7.72;;
18649;SDS011;9454;53.516;10.478;2022-08-19T01:03:42;15.52;;;8.15;;
18649;SDS011;9454;53.516;10.478;2022-08-19T01:06:58;13.63;;;7.25;;
18649;SDS011;9454;53.516;10.478;2022-08-19T01:10:02;12.82;;;7.03;;
18649;SDS011;9454;53.516;10.478;2022-08-19T01:13:05;13.30;;;6.85;;
18649;SDS011;9454;53.516;10.478;2022-08-19T01:16:10;20.98;;;9.18;;
18649;SDS011;9454;53.516;10.478;2022-08-19T01:19:15;16.55;;;7.68;;
18649;SDS011;9454;53.516;10.478;2022-08-19T01:22:25;17.05;;;8.95;;
18649;SDS011;9454;53.516;10.478;2022-08-19T01:25:35;18.08;;;9.02;;
18649;SDS011;9454;53.516;10.478;2022-08-19T01:28:40;14.63;;;8.45;;
18649;SDS011;9454;53.516;10.478;2022-08-19T01:31:43;16.92;;;9.00;;
18649;SDS011;9454;53.516;10.478;2022-08-19T01:34:45;23.17;;;9.25;;
18649;SDS011;9454;53.516;10.478;2022-08-19T01:37:51;17.25;;;9.35;;
18649;SDS011;9454;53.516;10.478;2022-08-19T01:40:54;16.50;;;8.65;;
18649;SDS011;9454;53.516;10.478;2022-08-19T01:43:57;20.20;;;9.77;;
18649;SDS011;9454;53.516;10.478;2022-08-19T01:47:17;17.52;;;8.88;;
18649;SDS011;9454;53.516;10.478;2022-08-19T01:50:21;24.52;;;9.43;;
18649;SDS011;9454;53.516;10.478;2022-08-19T01:53:25;19.30;;;9.65;;
18649;SDS011;9454;53.516;10.478;2022-08-19T01:56:34;16.80;;;9.15;;
18649;SDS011;9454;53.516;10.478;2022-08-19T01:59:36;18.50;;;9.20;;
18649;SDS011;9454;53.516;10.478;2022-08-19T02:02:39;21.00;;;10.07;;
18649;SDS011;9454;53.516;10.478;2022-08-19T02:05:55;19.17;;;10.20;;
18649;SDS011;9454;53.516;10.478;2022-08-19T02:09:00;19.90;;;10.15;;
18649;SDS011;9454;53.516;10.478;2022-08-19T02:12:03;21.67;;;9.13;;
18649;SDS011;9454;53.516;10.478;2022-08-19T02:15:07;19.67;;;8.77;;
18649;SDS011;9454;53.516;10.478;2022-08-19T02:18:10;21.33;;;10.57;;
18649;SDS011;9454;53.516;10.478;2022-08-19T02:21:12;18.83;;;10.30;;
18649;SDS011;9454;53.516;10.478;2022-08-19T02:24:18;19.63;;;9.82;;
18649;SDS011;9454;53.516;10.478;2022-08-19T02:27:20;25.38;;;10.30;;
18649;SDS011;9454;53.516;10.478;2022-08-19T02:30:23;17.88;;;9.48;;
18649;SDS011;9454;53.516;10.478;2022-08-19T02:33:26;23.35;;;10.35;;
18649;SDS011;9454;53.516;10.478;2022-08-19T02:36:29;21.80;;;10.60;;
18649;SDS011;9454;53.516;10.478;2022-08-19T02:39:34;18.35;;;9.15;;
18649;SDS011;9454;53.516;10.478;2022-08-19T02:42:36;18.88;;;9.38;;
18649;SDS011;9454;53.516;10.478;2022-08-19T02:45:39;20.83;;;10.00;;
18649;SDS011;9454;53.516;10.478;2022-08-19T02:48:42;19.77;;;10.18;;
18649;SDS011;9454;53.516;10.478;2022-08-19T02:51:45;16.60;;;8.38;;
18649;SDS011;9454;53.516;10.478;2022-08-19T02:54:49;18.58;;;10.02;;
18649;SDS011;9454;53.516;10.478;2022-08-19T02:57:52;18.02;;;9.95;;
18649;SDS011;9454;53.516;10.478;2022-08-19T03:00:56;19.88;;;8.98;;
18649;SDS011;9454;53.516;10.478;2022-08-19T03:04:00;22.60;;;9.90;;
18649;SDS011;9454;53.516;10.478;2022-08-19T03:07:03;22.63;;;10.38;;
18649;SDS011;9454;53.516;10.478;2022-08-19T03:10:12;17.70;;;9.60;;
18649;SDS011;9454;53.516;10.478;2022-08-19T03:13:17;23.55;;;10.13;;
18649;SDS011;9454;53.516;10.478;2022-08-19T03:16:21;21.23;;;9.43;;
18649;SDS011;9454;53.516;10.478;2022-08-19T03:19:24;19.40;;;10.15;;
18649;SDS011;9454;53.516;10.478;2022-08-19T03:22:26;21.80;;;10.98;;
18649;SDS011;9454;53.516;10.478;2022-08-19T03:25:31;18.30;;;10.32;;
18649;SDS011;9454;53.516;10.478;2022-08-19T03:28:38;20.45;;;10.60;;
18649;SDS011;9454;53.516;10.478;2022-08-19T03:31:42;20.40;;;10.98;;
18649;SDS011;9454;53.516;10.478;2022-08-19T03:34:53;19.50;;;9.93;;
18649;SDS011;9454;53.516;10.478;2022-08-19T03:37:55;19.77;;;10.55;;
18649;SDS011;9454;53.516;10.478;2022-08-19T03:41:03;23.75;;;10.50;;
18649;SDS011;9454;53.516;10.478;2022-08-19T03:44:07;24.75;;;10.73;;
18649;SDS011;9454;53.516;10.478;2022-08-19T03:47:19;20.40;;;10.20;;
18649;SDS011;9454;53.516;10.478;2022-08-19T03:50:21;17.73;;;9.25;;
18649;SDS011;9454;53.516;10.478;2022-08-19T03:53:26;22.30;;;10.32;;
18649;SDS011;9454;53.516;10.478;2022-08-19T03:56:30;21.45;;;9.88;;
18649;SDS011;9454;53.516;10.478;2022-08-19T03:59:34;20.80;;;9.23;;
18649;SDS011;9454;53.516;10.478;2022-08-19T04:02:37;22.58;;;9.20;;
18649;SDS011;9454;53.516;10.478;2022-08-19T04:05:40;17.75;;;8.90;;
18649;SDS011;9454;53.516;10.478;2022-08-19T04:08:44;24.35;;;11.27;;
18649;SDS011;9454;53.516;10.478;2022-08-19T04:11:49;20.70;;;9.57;;
18649;SDS011;9454;53.516;10.478;2022-08-19T04:14:55;21.60;;;10.80;;
18649;SDS011;9454;53.516;10.478;2022-08-19T04:17:58;24.52;;;9.55;;
18649;SDS011;9454;53.516;10.478;2022-08-19T04:21:01;22.23;;;12.27;;
18649;SDS011;9454;53.516;10.478;2022-08-19T04:24:04;23.00;;;10.73;;
18649;SDS011;9454;53.516;10.478;2022-08-19T04:27:09;26.00;;;11.38;;
18649;SDS011;9454;53.516;10.478;2022-08-19T04:30:12;25.67;;;10.90;;
18649;SDS011;9454;53.516;10.478;2022-08-19T04:33:16;24.70;;;9.93;;
18649;SDS011;9454;53.516;10.478;2022-08-19T04:36:30;20.13;;;9.00;;
18649;SDS011;9454;53.516;10.478;2022-08-19T04:39:33;23.02;;;8.93;;
18649;SDS011;9454;53.516;10.478;2022-08-19T04:43:00;25.05;;;8.80;;
18649;SDS011;9454;53.516;10.478;2022-08-19T04:46:04;20.45;;;10.27;;
18649;SDS011;9454;53.516;10.478;2022-08-19T04:49:07;22.42;;;10.30;;
18649;SDS011;9454;53.516;10.478;2022-08-19T04:52:14;21.95;;;10.00;;
18649;SDS011;9454;53.516;10.478;2022-08-19T04:55:17;21.50;;;9.77;;
18649;SDS011;9454;53.516;10.478;2022-08-19T04:58:21;19.42;;;9.77;;
18649;SDS011;9454;53.516;10.478;2022-08-19T05:01:25;31.13;;;10.43;;
18649;SDS011;9454;53.516;10.478;2022-08-19T05:04:29;29.90;;;10.75;;
18649;SDS011;9454;53.516;10.478;2022-08-19T05:07:34;31.00;;;10.82;;
18649;SDS011;9454;53.516;10.478;2022-08-19T05:10:36;22.33;;;10.55;;
18649;SDS011;9454;53.516;10.478;2022-08-19T05:13:41;29.85;;;10.18;;
18649;SDS011;9454;53.516;10.478;2022-08-19T05:16:44;20.27;;;9.20;;
18649;SDS011;9454;53.516;10.478;2022-08-19T05:19:46;27.40;;;10.45;;
18649;SDS011;9454;53.516;10.478;2022-08-19T05:23:07;29.00;;;9.85;;
18649;SDS011;9454;53.516;10.478;2022-08-19T05:26:22;25.95;;;10.15;;
18649;SDS011;9454;53.516;10.478;2022-08-19T05:29:28;25.27;;;10.55;;
18649;SDS011;9454;53.516;10.478;2022-08-19T05:32:37;22.42;;;9.63;;
18649;SDS011;9454;53.516;10.478;2022-08-19T05:35:39;23.58;;;10.55;;
18649;SDS011;9454;53.516;10.478;2022-08-19T05:38:42;24.95;;;9.13;;
18649;SDS011;9454;53.516;10.478;2022-08-19T05:41:46;27.17;;;10.20;;
18649;SDS011;9454;53.516;10.478;2022-08-19T05:44:51;22.98;;;9.35;;
18649;SDS011;9454;53.516;10.478;2022-08-19T05:47:54;32.25;;;9.85;;
18649;SDS011;9454;53.516;10.478;2022-08-19T05:50:56;22.67;;;8.48;;
18649;SDS011;9454;53.516;10.478;2022-08-19T05:54:01;26.77;;;9.43;;
18649;SDS011;9454;53.516;10.478;2022-08-19T05:57:04;19.88;;;8.68;;
18649;SDS011;9454;53.516;10.478;2022-08-19T06:00:09;21.20;;;8.88;;
18649;SDS011;9454;53.516;10.478;2022-08-19T06:03:13;31.13;;;10.05;;
18649;SDS011;9454;53.516;10.478;2022-08-19T06:06:15;20.40;;;8.77;;
18649;SDS011;9454;53.516;10.478;2022-08-19T06:09:18;19.67;;;7.55;;
18649;SDS011;9454;53.516;10.478;2022-08-19T06:12:22;15.23;;;8.35;;
18649;SDS011;9454;53.516;10.478;2022-08-19T06:15:33;17.10;;;8.10;;
18649;SDS011;9454;53.516;10.478;2022-08-19T06:18:35;17.10;;;7.40;;
18649;SDS011;9454;53.516;10.478;2022-08-19T06:21:39;15.73;;;7.68;;
18649;SDS011;9454;53.516;10.478;2022-08-19T06:24:42;16.80;;;7.85;;
18649;SDS011;9454;53.516;10.478;2022-08-19T06:27:45;17.98;;;7.55;;
18649;SDS011;9454;53.516;10.478;2022-08-19T06:31:09;15.07;;;7.55;;
18649;SDS011;9454;53.516;10.478;2022-08-19T06:34:15;16.35;;;6.75;;
18649;SDS011;9454;53.516;10.478;2022-08-19T06:37:18;16.33;;;8.13;;
18649;SDS011;9454;53.516;10.478;2022-08-19T06:40:23;16.20;;;6.90;;
18649;SDS011;9454;53.516;10.478;2022-08-19T06:43:31;17.35;;;7.97;;
18649;SDS011;9454;53.516;10.478;2022-08-19T06:46:37;16.25;;;6.97;;
18649;SDS011;9454;53.516;10.478;2022-08-19T06:49:40;18.60;;;8.07;;
18649;SDS011;9454;53.516;10.478;2022-08-19T06:52:45;16.25;;;8.40;;
18649;SDS011;9454;53.516;10.478;2022-08-19T06:56:23;19.90;;;8.52;;
18649;SDS011;9454;53.516;10.478;2022-08-19T06:59:32;17.02;;;8.20;;
18649;SDS011;9454;53.516;10.478;2022-08-19T07:02:36;23.02;;;8.85;;
18649;SDS011;9454;53.516;10.478;2022-08-19T07:05:41;24.70;;;9.23;;
18649;SDS011;9454;53.516;10.478;2022-08-19T07:08:46;21.25;;;8.80;;
18649;SDS011;9454;53.516;10.478;2022-08-19T07:11:50;21.65;;;9.10;;
18649;SDS011;9454;53.516;10.478;2022-08-19T07:14:53;21.60;;;9.52;;
18649;SDS011;9454;53.516;10.478;2022-08-19T07:17:57;21.23;;;9.30;;
18649;SDS011;9454;53.516;10.478;2022-08-19T07:21:07;22.95;;;9.50;;
18649;SDS011;9454;53.516;10.478;2022-08-19T07:24:11;21.00;;;11.07;;
18649;SDS011;9454;53.516;10.478;2022-08-19T07:27:13;26.13;;;9.82;;
18649;SDS011;9454;53.516;10.478;2022-08-19T07:30:17;22.83;;;10.05;;
18649;SDS011;9454;53.516;10.478;2022-08-19T07:33:21;23.98;;;10.23;;
18649;SDS011;9454;53.516;10.478;2022-08-19T07:36:28;23.00;;;8.90;;
18649;SDS011;9454;53.516;10.478;2022-08-19T07:39:34;23.58;;;9.10;;
18649;SDS011;9454;53.516;10.478;2022-08-19T07:42:38;22.02;;;8.73;;
18649;SDS011;9454;53.516;10.478;2022-08-19T07:45:41;24.00;;;9.88;;
18649;SDS011;9454;53.516;10.478;2022-08-19T07:48:47;20.95;;;9.93;;
18649;SDS011;9454;53.516;10.478;2022-08-19T07:51:51;22.85;;;9.23;;
18649;SDS011;9454;53.516;10.478;2022-08-19T07:54:57;21.50;;;10.15;;
18649;SDS011;9454;53.516;10.478;2022-08-19T07:58:01;24.35;;;9.77;;
18649;SDS011;9454;53.516;10.478;2022-08-19T08:01:06;28.92;;;10.57;;
18649;SDS011;9454;53.516;10.478;2022-08-19T08:04:12;20.02;;;10.35;;
18649;SDS011;9454;53.516;10.478;2022-08-19T08:07:33;19.13;;;9.50;;
18649;SDS011;9454;53.516;10.478;2022-08-19T08:10:54;21.17;;;8.77;;
18649;SDS011;9454;53.516;10.478;2022-08-19T08:13:58;18.52;;;10.13;;
18649;SDS011;9454;53.516;10.478;2022-08-19T08:17:05;25.48;;;9.77;;
18649;SDS011;9454;53.516;10.478;2022-08-19T08:20:13;26.30;;;10.32;;
18649;SDS011;9454;53.516;10.478;2022-08-19T08:23:16;22.35;;;9.52;;
18649;SDS011;9454;53.516;10.478;2022-08-19T08:26:27;26.92;;;10.18;;
18649;SDS011;9454;53.516;10.478;2022-08-19T08:29:35;22.23;;;9.32;;
18649;SDS011;9454;53.516;10.478;2022-08-19T08:32:38;22.55;;;10.00;;
18649;SDS011;9454;53.516;10.478;2022-08-19T08:35:43;20.67;;;10.00;;
18649;SDS011;9454;53.516;10.478;2022-08-19T08:38:50;23.08;;;9.40;;
18649;SDS011;9454;53.516;10.478;2022-08-19T08:42:07;23.33;;;8.90;;
18649;SDS011;9454;53.516;10.478;2022-08-19T08:45:18;23.63;;;11.43;;
18649;SDS011;9454;53.516;10.478;2022-08-19T08:48:24;23.10;;;10.35;;
18649;SDS011;9454;53.516;10.478;2022-08-19T08:51:52;28.00;;;11.00;;
18649;SDS011;9454;53.516;10.478;2022-08-19T08:55:03;23.55;;;9.80;;
18649;SDS011;9454;53.516;10.478;2022-08-19T08:58:12;29.08;;;10.30;;
18649;SDS011;9454;53.516;10.478;2022-08-19T09:01:17;29.50;;;11.18;;
18649;SDS011;9454;53.516;10.478;2022-08-19T09:04:21;28.10;;;11.20;;
18649;SDS011;9454;53.516;10.478;2022-08-19T09:07:29;26.70;;;10.57;;
18649;SDS011;9454;53.516;10.478;2022-08-19T09:10:38;31.55;;;11.18;;
18649;SDS011;9454;53.516;10.478;2022-08-19T09:13:48;25.88;;;10.75;;
18649;SDS011;9454;53.516;10.478;2022-08-19T09:16:52;25.50;;;10.63;;
18649;SDS011;9454;53.516;10.478;2022-08-19T09:19:55;27.33;;;10.27;;
18649;SDS011;9454;53.516;10.478;2022-08-19T09:22:59;36.15;;;12.35;;
18649;SDS011;9454;53.516;10.478;2022-08-19T09:26:06;32.70;;;12.00;;
18649;SDS011;9454;53.516;10.478;2022-08-19T09:29:11;28.67;;;11.13;;
18649;SDS011;9454;53.516;10.478;2022-08-19T09:32:14;24.98;;;11.05;;
18649;SDS011;9454;53.516;10.478;2022-08-19T09:35:28;24.77;;;12.05;;
18649;SDS011;9454;53.516;10.478;2022-08-19T09:38:32;29.30;;;11.20;;
18649;SDS011;9454;53.516;10.478;2022-08-19T09:41:35;26.73;;;11.65;;
18649;SDS011;9454;53.516;10.478;2022-08-19T09:44:38;24.90;;;11.35;;
18649;SDS011;9454;53.516;10.478;2022-08-19T09:47:41;34.25;;;11.93;;
18649;SDS011;9454;53.516;10.478;2022-08-19T09:50:47;28.38;;;11.52;;
18649;SDS011;9454;53.516;10.478;2022-08-19T09:53:54;32.47;;;12.15;;
18649;SDS011;9454;53.516;10.478;2022-08-19T09:56:58;25.92;;;10.85;;
18649;SDS011;9454;53.516;10.478;2022-08-19T10:00:07;30.02;;;11.38;;
18649;SDS011;9454;53.516;10.478;2022-08-19T10:03:11;31.25;;;12.27;;
18649;SDS011;9454;53.516;10.478;2022-08-19T10:06:16;32.13;;;11.35;;
18649;SDS011;9454;53.516;10.478;2022-08-19T10:09:40;33.20;;;12.27;;
18649;SDS011;9454;53.516;10.478;2022-08-19T10:12:47;27.48;;;10.77;;
18649;SDS011;9454;53.516;10.478;2022-08-19T10:15:50;27.00;;;10.13;;
18649;SDS011;9454;53.516;10.478;2022-08-19T10:18:53;28.05;;;11.48;;
18649;SDS011;9454;53.516;10.478;2022-08-19T10:22:01;29.88;;;11.40;;
18649;SDS011;9454;53.516;10.478;2022-08-19T10:25:07;31.60;;;11.45;;
18649;SDS011;9454;53.516;10.478;2022-08-19T10:28:10;40.28;;;11.57;;
18649;SDS011;9454;53.516;10.478;2022-08-19T10:31:14;31.33;;;11.50;;
18649;SDS011;9454;53.516;10.478;2022-08-19T10:34:19;35.38;;;11.55;;
18649;SDS011;9454;53.516;10.478;2022-08-19T10:37:28;31.90;;;9.73;;
18649;SDS011;9454;53.516;10.478;2022-08-19T10:40:36;31.90;;;11.73;;
18649;SDS011;9454;53.516;10.478;2022-08-19T10:43:40;25.40;;;11.45;;
18649;SDS011;9454;53.516;10.478;2022-08-19T10:46:43;25.77;;;10.38;;
18649;SDS011;9454;53.516;10.478;2022-08-19T10:49:51;27.80;;;10.95;;
18649;SDS011;9454;53.516;10.478;2022-08-19T10:53:12;32.13;;;11.32;;
18649;SDS011;9454;53.516;10.478;2022-08-19T10:56:18;31.67;;;12.13;;
18649;SDS011;9454;53.516;10.478;2022-08-19T10:59:38;31.80;;;12.18;;
18649;SDS011;9454;53.516;10.478;2022-08-19T11:02:41;35.90;;;11.73;;
18649;SDS011;9454;53.516;10.478;2022-08-19T11:05:44;26.13;;;10.63;;
18649;SDS011;9454;53.516;10.478;2022-08-19T11:08:47;25.80;;;11.40;;
18649;SDS011;9454;53.516;10.478;2022-08-19T11:11:52;25.23;;;11.07;;
18649;SDS011;9454;53.516;10.478;2022-08-19T11:14:56;22.88;;;10.88;;
18649;SDS011;9454;53.516;10.478;2022-08-19T11:17:59;22.67;;;10.23;;
18649;SDS011;9454;53.516;10.478;2022-08-19T11:21:06;25.60;;;11.90;;
18649;SDS011;9454;53.516;10.478;2022-08-19T11:24:10;25.13;;;11.07;;
18649;SDS011;9454;53.516;10.478;2022-08-19T11:27:17;28.55;;;11.40;;
18649;SDS011;9454;53.516;10.478;2022-08-19T11:30:20;23.83;;;11.38;;
18649;SDS011;9454;53.516;10.478;2022-08-19T11:33:23;24.42;;;11.70;;
18649;SDS011;9454;53.516;10.478;2022-08-19T11:36:27;27.70;;;11.60;;
18649;SDS011;9454;53.516;10.478;2022-08-19T11:39:31;24.80;;;11.32;;
18649;SDS011;9454;53.516;10.478;2022-08-19T11:42:36;25.08;;;11.85;;
18649;SDS011;9454;53.516;10.478;2022-08-19T11:45:57;23.15;;;10.98;;
18649;SDS011;9454;53.516;10.478;2022-08-19T11:49:01;29.23;;;11.57;;
18649;SDS011;9454;53.516;10.478;2022-08-19T11:52:04;27.33;;;11.70;;
18649;SDS011;9454;53.516;10.478;2022-08-19T11:55:07;26.60;;;12.27;;
18649;SDS011;9454;53.516;10.478;2022-08-19T11:58:12;26.17;;;11.30;;
18649;SDS011;9454;53.516;10.478;2022-08-19T12:01:20;26.23;;;12.00;;
18649;SDS011;9454;53.516;10.478;2022-08-19T12:04:23;25.45;;;12.73;;
18649;SDS011;9454;53.516;10.478;2022-08-19T12:07:27;24.17;;;11.77;;
18649;SDS011;9454;53.516;10.478;2022-08-19T12:10:30;22.42;;;10.90;;
18649;SDS011;9454;53.516;10.478;2022-08-19T12:13:35;28.30;;;12.27;;
18649;SDS011;9454;53.516;10.478;2022-08-19T12:16:37;24.90;;;11.73;;
18649;SDS011;9454;53.516;10.478;2022-08-19T12:19:47;25.15;;;11.98;;
18649;SDS011;9454;53.516;10.478;2022-08-19T12:22:49;25.10;;;11.63;;
18649;SDS011;9454;53.516;10.478;2022-08-19T12:25:53;26.63;;;12.13;;
18649;SDS011;9454;53.516;10.478;2022-08-19T12:28:59;24.10;;;10.75;;
18649;SDS011;9454;53.516;10.478;2022-08-19T12:32:02;20.15;;;10.48;;
18649;SDS011;9454;53.516;10.478;2022-08-19T12:35:05;22.55;;;11.10;;
18649;SDS011;9454;53.516;10.478;2022-08-19T12:38:10;20.42;;;10.50;;
18649;SDS011;9454;53.516;10.478;2022-08-19T12:41:14;35.55;;;12.07;;
18649;SDS011;9454;53.516;10.478;2022-08-19T12:44:21;22.23;;;10.70;;
18649;SDS011;9454;53.516;10.478;2022-08-19T12:47:35;19.92;;;9.82;;
18649;SDS011;9454;53.516;10.478;2022-08-19T12:50:41;19.75;;;10.73;;
18649;SDS011;9454;53.516;10.478;2022-08-19T12:53:44;18.55;;;9.23;;
18649;SDS011;9454;53.516;10.478;2022-08-19T12:56:47;21.40;;;9.95;;
18649;SDS011;9454;53.516;10.478;2022-08-19T12:59:53;21.05;;;10.32;;
18649;SDS011;9454;53.516;10.478;2022-08-19T13:02:56;19.00;;;9.85;;
18649;SDS011;9454;53.516;10.478;2022-08-19T13:05:59;24.33;;;11.25;;
18649;SDS011;9454;53.516;10.478;2022-08-19T13:09:03;24.05;;;11.75;;
18649;SDS011;9454;53.516;10.478;2022-08-19T13:12:06;22.80;;;11.30;;
18649;SDS011;9454;53.516;10.478;2022-08-19T13:15:15;24.10;;;10.93;;
18649;SDS011;9454;53.516;10.478;2022-08-19T13:18:24;19.98;;;10.45;;
18649;SDS011;9454;53.516;10.478;2022-08-19T13:21:27;17.92;;;9.35;;
18649;SDS011;9454;53.516;10.478;2022-08-19T13:24:31;22.65;;;10.25;;
18649;SDS011;9454;53.516;10.478;2022-08-19T13:27:35;21.35;;;10.30;;
18649;SDS011;9454;53.516;10.478;2022-08-19T13:30:42;21.20;;;10.82;;
18649;SDS011;9454;53.516;10.478;2022-08-19T13:34:07;26.00;;;10.32;;
18649;SDS011;9454;53.516;10.478;2022-08-19T13:37:11;15.95;;;10.10;;
18649;SDS011;9454;53.516;10.478;2022-08-19T13:40:15;20.90;;;8.80;;
18649;SDS011;9454;53.516;10.478;2022-08-19T13:43:20;22.20;;;11.05;;
18649;SDS011;9454;53.516;10.478;2022-08-19T13:46:26;23.92;;;10.48;;
18649;SDS011;9454;53.516;10.478;2022-08-19T13:49:32;23.77;;;9.23;;
18649;SDS011;9454;53.516;10.478;2022-08-19T13:52:36;21.58;;;9.68;;
18649;SDS011;9454;53.516;10.478;2022-08-19T13:55:40;22.83;;;12.13;;
18649;SDS011;9454;53.516;10.478;2022-08-19T13:58:45;24.38;;;11.80;;
18649;SDS011;9454;53.516;10.478;2022-08-19T14:01:49;17.85;;;9.63;;
18649;SDS011;9454;53.516;10.478;2022-08-19T14:04:52;18.10;;;10.25;;
18649;SDS011;9454;53.516;10.478;2022-08-19T14:07:55;20.35;;;10.43;;
18649;SDS011;9454;53.516;10.478;2022-08-19T14:10:58;18.05;;;10.02;;
18649;SDS011;9454;53.516;10.478;2022-08-19T14:14:07;17.45;;;9.50;;
18649;SDS011;9454;53.516;10.478;2022-08-19T14:17:17;23.67;;;11.73;;
18649;SDS011;9454;53.516;10.478;2022-08-19T14:20:20;15.65;;;9.38;;
18649;SDS011;9454;53.516;10.478;2022-08-19T14:23:26;18.52;;;10.27;;
18649;SDS011;9454;53.516;10.478;2022-08-19T14:26:29;21.30;;;10.80;;
18649;SDS011;9454;53.516;10.478;2022-08-19T14:29:34;19.95;;;10.85;;
18649;SDS011;9454;53.516;10.478;2022-08-19T14:32:38;19.52;;;7.75;;
18649;SDS011;9454;53.516;10.478;2022-08-19T14:35:41;14.13;;;8.80;;
18649;SDS011;9454;53.516;10.478;2022-08-19T14:38:46;12.88;;;7.00;;
18649;SDS011;9454;53.516;10.478;2022-08-19T14:41:50;12.82;;;7.53;;
18649;SDS011;9454;53.516;10.478;2022-08-19T14:44:53;17.08;;;8.95;;
18649;SDS011;9454;53.516;10.478;2022-08-19T14:48:00;14.80;;;7.53;;
18649;SDS011;9454;53.516;10.478;2022-08-19T14:51:04;11.63;;;7.15;;
18649;SDS011;9454;53.516;10.478;2022-08-19T14:54:06;18.50;;;8.35;;
18649;SDS011;9454;53.516;10.478;2022-08-19T14:57:11;12.90;;;6.60;;
18649;SDS011;9454;53.516;10.478;2022-08-19T15:00:14;11.32;;;7.63;;
18649;SDS011;9454;53.516;10.478;2022-08-19T15:03:18;16.98;;;8.25;;
18649;SDS011;9454;53.516;10.478;2022-08-19T15:06:22;18.02;;;7.43;;
18649;SDS011;9454;53.516;10.478;2022-08-19T15:09:24;11.77;;;6.88;;
18649;SDS011;9454;53.516;10.478;2022-08-19T15:12:27;9.25;;;6.05;;
18649;SDS011;9454;53.516;10.478;2022-08-19T15:15:30;10.52;;;6.18;;
18649;SDS011;9454;53.516;10.478;2022-08-19T15:18:34;11.77;;;5.93;;
18649;SDS011;9454;53.516;10.478;2022-08-19T15:21:37;10.68;;;5.28;;
18649;SDS011;9454;53.516;10.478;2022-08-19T15:24:40;10.65;;;5.57;;
18649;SDS011;9454;53.516;10.478;2022-08-19T15:27:48;9.25;;;5.90;;
18649;SDS011;9454;53.516;10.478;2022-08-19T15:30:51;10.23;;;6.68;;
18649;SDS011;9454;53.516;10.478;2022-08-19T15:33:56;12.63;;;6.28;;
18649;SDS011;9454;53.516;10.478;2022-08-19T15:37:00;9.18;;;5.25;;
18649;SDS011;9454;53.516;10.478;2022-08-19T15:40:05;12.10;;;5.95;;
18649;SDS011;9454;53.516;10.478;2022-08-19T15:43:10;10.70;;;5.93;;
18649;SDS011;9454;53.516;10.478;2022-08-19T15:46:15;11.02;;;5.85;;
18649;SDS011;9454;53.516;10.478;2022-08-19T15:49:20;10.63;;;6.35;;
18649;SDS011;9454;53.516;10.478;2022-08-19T15:52:29;13.35;;;5.85;;
18649;SDS011;9454;53.516;10.478;2022-08-19T15:55:43;12.40;;;6.03;;
18649;SDS011;9454;53.516;10.478;2022-08-19T15:58:48;12.32;;;6.40;;
18649;SDS011;9454;53.516;10.478;2022-08-19T16:02:09;9.02;;;6.00;;
18649;SDS011;9454;53.516;10.478;2022-08-19T16:05:34;13.50;;;5.53;;
18649;SDS011;9454;53.516;10.478;2022-08-19T16:08:54;12.48;;;6.70;;
18649;SDS011;9454;53.516;10.478;2022-08-19T16:11:59;9.55;;;5.60;;
18649;SDS011;9454;53.516;10.478;2022-08-19T16:15:03;9.85;;;5.68;;
18649;SDS011;9454;53.516;10.478;2022-08-19T16:18:06;14.50;;;6.07;;
18649;SDS011;9454;53.516;10.478;2022-08-19T16:21:11;8.80;;;5.65;;
18649;SDS011;9454;53.516;10.478;2022-08-19T16:24:15;9.52;;;6.03;;
18649;SDS011;9454;53.516;10.478;2022-08-19T16:27:18;8.32;;;5.68;;
18649;SDS011;9454;53.516;10.478;2022-08-19T16:30:23;11.23;;;5.47;;
18649;SDS011;9454;53.516;10.478;2022-08-19T16:33:25;16.48;;;6.75;;
18649;SDS011;9454;53.516;10.478;2022-08-19T16:36:30;12.15;;;5.15;;
18649;SDS011;9454;53.516;10.478;2022-08-19T16:39:33;6.20;;;4.70;;
18649;SDS011;9454;53.516;10.478;2022-08-19T16:42:36;9.90;;;5.95;;
18649;SDS011;9454;53.516;10.478;2022-08-19T16:45:42;6.03;;;5.30;;
18649;SDS011;9454;53.516;10.478;2022-08-19T16:48:45;8.48;;;5.32;;
18649;SDS011;9454;53.516;10.478;2022-08-19T16:51:49;6.95;;;4.95;;
18649;SDS011;9454;53.516;10.478;2022-08-19T16:54:52;10.35;;;5.55;;
18649;SDS011;9454;53.516;10.478;2022-08-19T16:57:55;14.07;;;6.25;;
18649;SDS011;9454;53.516;10.478;2022-08-19T17:00:58;12.43;;;5.95;;
18649;SDS011;9454;53.516;10.478;2022-08-19T17:04:04;12.65;;;5.93;;
18649;SDS011;9454;53.516;10.478;2022-08-19T17:07:09;9.52;;;6.22;;
18649;SDS011;9454;53.516;10.478;2022-08-19T17:10:12;8.48;;;5.55;;
18649;SDS011;9454;53.516;10.478;2022-08-19T17:13:15;8.75;;;5.70;;
18649;SDS011;9454;53.516;10.478;2022-08-19T17:16:18;10.95;;;5.78;;
18649;SDS011;9454;53.516;10.478;2022-08-19T17:19:22;10.63;;;6.72;;
18649;SDS011;9454;53.516;10.478;2022-08-19T17:22:27;10.55;;;5.63;;
18649;SDS011;9454;53.516;10.478;2022-08-19T17:25:31;11.48;;;5.97;;
18649;SDS011;9454;53.516;10.478;2022-08-19T17:28:34;6.85;;;4.80;;
18649;SDS011;9454;53.516;10.478;2022-08-19T17:31:36;9.02;;;6.63;;
18649;SDS011;9454;53.516;10.478;2022-08-19T17:34:39;11.75;;;6.30;;
18649;SDS011;9454;53.516;10.478;2022-08-19T17:37:44;8.07;;;5.07;;
18649;SDS011;9454;53.516;10.478;2022-08-19T17:40:46;11.15;;;6.18;;
18649;SDS011;9454;53.516;10.478;2022-08-19T17:43:49;10.98;;;6.15;;
18649;SDS011;9454;53.516;10.478;2022-08-19T17:46:52;10.63;;;6.38;;
18649;SDS011;9454;53.516;10.478;2022-08-19T17:49:56;9.30;;;5.90;;
18649;SDS011;9454;53.516;10.478;2022-08-19T17:53:02;8.52;;;5.57;;
18649;SDS011;9454;53.516;10.478;2022-08-19T17:56:06;9.45;;;5.80;;
18649;SDS011;9454;53.516;10.478;2022-08-19T17:59:09;7.20;;;5.50;;
18649;SDS011;9454;53.516;10.478;2022-08-19T18:02:14;11.15;;;6.90;;
18649;SDS011;9454;53.516;10.478;2022-08-19T18:05:23;10.65;;;6.70;;
18649;SDS011;9454;53.516;10.478;2022-08-19T18:08:30;8.77;;;5.53;;
18649;SDS011;9454;53.516;10.478;2022-08-19T18:11:33;8.98;;;6.13;;
18649;SDS011;9454;53.516;10.478;2022-08-19T18:14:37;9.88;;;5.47;;
18649;SDS011;9454;53.516;10.478;2022-08-19T18:17:40;10.77;;;5.50;;